Bovey Tracey, United Kingdom
Current Conditions -  °F | °C
As of 8:20 AM on Thursday 29 Jan 2015 (Local Time) from EGTE Reporting Station
Rain Showers Rain Showers  
Wind Chill:   Ceiling: Unl
Heat Index:   Visibility: 6mi
Dew Point:   Wind: 6mph
Humidity: 87%   Direction: 200°SSW
Pressure: 29.26"   Gusts: NA
Location:  50.59°N, 3.68°W
Report Text: EGTE 290820Z 20005KT 180V250 9999 VCSH FEW020 SCT030 03/01 Q0991
Loading
Personal Weather Stations






























Interactive Weather Map New forecast layout! Learn more

10-Day Weather Forecast

Advertisements
Track Severe Weather on mobile